createdAt,value
2019-03-24T00:00:45.437Z,14.70
2019-03-24T00:01:45.430Z,13.30
2019-03-24T00:02:45.422Z,13.70
2019-03-24T00:03:45.413Z,18.10
2019-03-24T00:04:45.402Z,15.50
2019-03-24T00:05:45.396Z,11.30
2019-03-24T00:06:45.386Z,12.40
2019-03-24T00:07:45.377Z,14.90
2019-03-24T00:08:45.375Z,11.70
2019-03-24T00:09:45.367Z,14.70
2019-03-24T00:10:45.356Z,15.50
2019-03-24T00:11:45.350Z,13.80
2019-03-24T00:12:45.346Z,14.50
2019-03-24T00:13:45.342Z,15.40
2019-03-24T00:14:45.334Z,17.10
2019-03-24T00:15:45.327Z,15.50
2019-03-24T00:16:45.317Z,13.50
2019-03-24T00:17:45.308Z,13.70
2019-03-24T00:18:45.300Z,17.00
2019-03-24T00:19:45.293Z,13.10
2019-03-24T00:20:45.290Z,16.20
2019-03-24T00:21:45.283Z,13.80
2019-03-24T00:22:45.274Z,18.40
2019-03-24T00:23:45.264Z,14.60
2019-03-24T00:24:45.253Z,12.10
2019-03-24T00:25:45.246Z,14.00
2019-03-24T00:26:45.243Z,14.10
2019-03-24T00:27:45.236Z,16.10
2019-03-24T00:28:45.222Z,14.00
2019-03-24T00:29:45.217Z,16.80
2019-03-24T00:30:45.215Z,19.80
2019-03-24T00:31:45.203Z,17.30
2019-03-24T00:32:45.200Z,15.70
2019-03-24T00:33:45.193Z,13.50
2019-03-24T00:34:45.186Z,15.30
2019-03-24T00:35:45.177Z,18.40
2019-03-24T00:36:45.168Z,17.20
2019-03-24T00:37:45.159Z,16.90
2019-03-24T00:38:45.148Z,17.10
2019-03-24T00:39:45.142Z,16.70
2019-03-24T00:40:45.137Z,19.80
2019-03-24T00:41:45.131Z,16.40
2019-03-24T00:42:45.119Z,20.70
2019-03-24T00:43:45.112Z,17.60
2019-03-24T00:44:45.106Z,16.00
2019-03-24T00:45:45.099Z,18.10
2019-03-24T00:46:45.098Z,17.30
2019-03-24T00:47:45.088Z,15.70
2019-03-24T00:48:45.075Z,15.70
2019-03-24T00:49:45.068Z,15.90
2019-03-24T00:50:45.057Z,17.70
2019-03-24T00:51:45.050Z,19.60
2019-03-24T00:52:45.046Z,18.40
2019-03-24T00:53:45.040Z,18.90
2019-03-24T00:54:45.035Z,19.00
2019-03-24T00:55:45.028Z,20.10
2019-03-24T00:56:45.015Z,18.50
2019-03-24T00:57:45.007Z,15.90
2019-03-24T00:58:45.004Z,18.40
2019-03-24T00:59:44.996Z,15.50
2019-03-24T01:00:44.984Z,19.00
2019-03-24T01:01:44.977Z,18.60
2019-03-24T01:02:44.968Z,17.50
2019-03-24T01:03:44.957Z,19.50
2019-03-24T01:04:44.956Z,19.90
2019-03-24T01:05:44.951Z,18.10
2019-03-24T01:06:44.942Z,17.80
2019-03-24T01:07:44.934Z,17.30
2019-03-24T01:08:44.919Z,16.90
2019-03-24T01:09:44.912Z,18.50
2019-03-24T01:10:44.906Z,16.80
2019-03-24T01:11:44.907Z,18.00
2019-03-24T01:12:44.895Z,14.80
2019-03-24T01:13:44.889Z,15.80
2019-03-24T01:14:44.878Z,20.80
2019-03-24T01:15:47.872Z,14.60
2019-03-24T01:16:44.866Z,14.80
2019-03-24T01:17:44.858Z,17.20
2019-03-24T01:18:44.847Z,18.60
2019-03-24T01:19:44.840Z,18.80
2019-03-24T01:20:44.827Z,15.30
2019-03-24T01:21:44.825Z,18.50
2019-03-24T01:22:44.813Z,22.60
2019-03-24T01:23:44.803Z,17.60
2019-03-24T01:24:44.802Z,15.70
2019-03-24T01:25:44.794Z,19.10
2019-03-24T01:26:44.795Z,18.20
2019-03-24T01:27:44.781Z,12.70
2019-03-24T01:28:44.777Z,16.70
2019-03-24T01:29:44.762Z,22.20
2019-03-24T01:30:44.766Z,20.60
2019-03-24T01:31:44.749Z,19.00
2019-03-24T01:32:44.738Z,23.10
2019-03-24T01:33:44.730Z,17.70
2019-03-24T01:34:44.719Z,14.00
2019-03-24T01:35:44.711Z,19.90
2019-03-24T01:36:44.708Z,22.60
2019-03-24T01:37:44.700Z,19.60
2019-03-24T01:38:44.692Z,21.00
2019-03-24T01:39:44.684Z,21.50
2019-03-24T01:40:44.671Z,16.90
2019-03-24T01:41:44.666Z,21.00
2019-03-24T01:42:44.659Z,20.70
2019-03-24T01:43:44.651Z,27.60
2019-03-24T01:44:44.648Z,20.20
2019-03-24T01:45:44.640Z,22.10
2019-03-24T01:46:44.626Z,16.10
2019-03-24T01:47:44.619Z,22.50
2019-03-24T01:48:44.614Z,21.70
2019-03-24T01:49:44.610Z,16.20
2019-03-24T01:50:44.598Z,19.80
2019-03-24T01:51:44.588Z,21.80
2019-03-24T01:52:44.582Z,21.90
2019-03-24T01:53:44.573Z,20.60
2019-03-24T01:54:44.563Z,20.20
2019-03-24T01:55:44.554Z,24.00
2019-03-24T01:56:44.551Z,21.00
2019-03-24T01:57:44.547Z,22.20
2019-03-24T01:58:44.534Z,20.40
2019-03-24T01:59:44.524Z,24.10
2019-03-24T02:00:44.512Z,20.30
2019-03-24T02:01:44.506Z,23.10
2019-03-24T02:02:44.515Z,27.10
2019-03-24T02:03:44.493Z,19.80
2019-03-24T02:04:44.480Z,21.70
2019-03-24T02:05:44.475Z,21.60
2019-03-24T02:06:44.467Z,32.50
2019-03-24T02:07:44.458Z,23.70
2019-03-24T02:08:44.455Z,26.40
2019-03-24T02:09:44.446Z,27.90
2019-03-24T02:10:44.440Z,24.30
2019-03-24T02:11:44.432Z,21.20
2019-03-24T02:12:44.418Z,26.90
2019-03-24T02:13:44.411Z,21.30
2019-03-24T02:14:44.398Z,22.60
2019-03-24T02:15:44.392Z,26.70
2019-03-24T02:16:44.386Z,23.20
2019-03-24T02:17:44.379Z,25.70
2019-03-24T02:18:44.367Z,20.90
2019-03-24T02:19:44.358Z,26.80
2019-03-24T02:20:44.355Z,23.60
2019-03-24T02:21:44.345Z,20.50
2019-03-24T02:22:44.340Z,24.90
2019-03-24T02:23:44.332Z,23.80
2019-03-24T02:24:44.318Z,22.20
2019-03-24T02:25:44.314Z,22.60
2019-03-24T02:26:44.309Z,31.40
2019-03-24T02:27:44.294Z,21.10
2019-03-24T02:28:44.294Z,25.40
2019-03-24T02:29:44.284Z,19.90
2019-03-24T02:30:44.272Z,19.80
2019-03-24T02:31:44.269Z,19.30
2019-03-24T02:32:44.251Z,27.70
2019-03-24T02:33:44.244Z,15.50
2019-03-24T02:34:44.241Z,25.00
2019-03-24T02:35:44.231Z,22.90
2019-03-24T02:36:44.222Z,21.40
2019-03-24T02:37:44.221Z,23.50
2019-03-24T02:38:44.214Z,20.50
2019-03-24T02:39:44.196Z,23.40
2019-03-24T02:40:44.193Z,21.30
2019-03-24T02:41:44.185Z,22.10
2019-03-24T02:42:44.176Z,26.00
2019-03-24T02:43:44.170Z,21.30
2019-03-24T02:44:44.161Z,23.00
2019-03-24T02:45:44.149Z,26.40
2019-03-24T02:46:44.137Z,23.20
2019-03-24T02:47:44.150Z,20.00
2019-03-24T02:48:44.131Z,26.60
2019-03-24T02:49:44.117Z,24.50
2019-03-24T02:50:44.103Z,22.90
2019-03-24T02:51:44.094Z,21.80
2019-03-24T02:52:44.100Z,21.60
2019-03-24T02:53:44.083Z,25.60
2019-03-24T02:54:44.078Z,28.50
2019-03-24T02:55:44.070Z,21.40
2019-03-24T02:56:44.058Z,25.50
2019-03-24T02:57:44.054Z,23.40
2019-03-24T02:58:44.037Z,27.20
2019-03-24T02:59:44.027Z,23.60
2019-03-24T03:00:44.026Z,26.10
2019-03-24T03:01:44.017Z,27.00
2019-03-24T03:02:44.012Z,27.90
2019-03-24T03:03:44.006Z,27.30
2019-03-24T03:04:43.994Z,29.90
2019-03-24T03:05:43.982Z,28.40
2019-03-24T03:06:43.979Z,25.50
2019-03-24T03:07:43.969Z,26.30
2019-03-24T03:08:43.957Z,28.70
2019-03-24T03:09:43.949Z,30.10
2019-03-24T03:10:43.940Z,27.20
2019-03-24T03:11:43.932Z,26.70
2019-03-24T03:12:43.924Z,25.00
2019-03-24T03:13:43.924Z,25.70
2019-03-24T03:14:43.909Z,26.20
2019-03-24T03:15:43.905Z,27.60
2019-03-24T03:16:43.886Z,25.60
2019-03-24T03:17:43.910Z,23.70
2019-03-24T03:18:43.878Z,27.80
2019-03-24T03:19:43.871Z,30.30
2019-03-24T03:20:43.861Z,31.80
2019-03-24T03:21:43.852Z,26.40
2019-03-24T03:22:43.840Z,27.40
2019-03-24T03:23:43.831Z,29.60
2019-03-24T03:24:43.827Z,30.30
2019-03-24T03:25:43.818Z,30.10
2019-03-24T03:26:43.808Z,27.90
2019-03-24T03:27:43.798Z,31.30
2019-03-24T03:28:43.786Z,28.30
2019-03-24T03:29:43.776Z,26.10
2019-03-24T03:30:43.778Z,33.00
2019-03-24T03:31:43.831Z,30.90
2019-03-24T03:32:43.757Z,28.10
2019-03-24T03:33:43.804Z,24.20
2019-03-24T03:34:43.753Z,33.30
2019-03-24T03:35:43.777Z,26.10
2019-03-24T03:36:43.784Z,29.00
2019-03-24T03:37:43.725Z,32.90
2019-03-24T03:38:43.716Z,31.90
2019-03-24T03:39:43.702Z,31.80
2019-03-24T03:40:43.763Z,29.50
2019-03-24T03:41:43.682Z,27.10
2019-03-24T03:42:43.684Z,31.80
2019-03-24T03:43:43.661Z,27.30
2019-03-24T03:44:43.656Z,27.00
2019-03-24T03:45:43.650Z,27.80
2019-03-24T03:46:52.457Z,30.10
2019-03-24T03:47:43.633Z,22.80
2019-03-24T03:48:43.617Z,23.40
2019-03-24T03:49:43.616Z,31.00
2019-03-24T03:50:43.639Z,22.50
2019-03-24T03:51:43.607Z,21.90
2019-03-24T03:52:43.590Z,25.60
2019-03-24T03:53:43.588Z,23.90
2019-03-24T03:54:43.570Z,23.30
2019-03-24T03:55:43.617Z,24.40
2019-03-24T03:56:43.578Z,27.90
2019-03-24T03:57:43.548Z,27.30
2019-03-24T03:58:43.548Z,25.20
2019-03-24T03:59:43.528Z,26.50
2019-03-24T04:00:43.519Z,28.80
2019-03-24T04:01:43.531Z,22.80
2019-03-24T04:02:43.504Z,23.10
2019-03-24T04:03:43.493Z,21.10
2019-03-24T04:04:43.487Z,24.00
2019-03-24T04:05:43.477Z,20.40
2019-03-24T04:06:43.466Z,27.40
2019-03-24T04:07:43.457Z,22.60
2019-03-24T04:08:43.447Z,17.10
2019-03-24T04:09:43.440Z,26.40
2019-03-24T04:10:43.433Z,16.80
2019-03-24T04:11:43.424Z,19.70
2019-03-24T04:12:43.411Z,28.10
2019-03-24T04:13:43.408Z,20.60
2019-03-24T04:14:43.397Z,24.20
2019-03-24T04:15:43.390Z,26.00
2019-03-24T04:16:43.382Z,24.90
2019-03-24T04:17:43.378Z,20.80
2019-03-24T04:18:43.365Z,20.00
2019-03-24T04:19:43.360Z,22.40
2019-03-24T04:20:43.347Z,21.20
2019-03-24T04:21:43.336Z,23.50
2019-03-24T04:22:43.325Z,19.00
2019-03-24T04:23:43.323Z,21.20
2019-03-24T04:24:43.313Z,19.40
2019-03-24T04:25:43.309Z,18.80
2019-03-24T04:26:43.296Z,17.10
2019-03-24T04:27:43.282Z,16.20
2019-03-24T04:28:43.281Z,22.80
2019-03-24T04:29:43.269Z,19.00
2019-03-24T04:30:43.262Z,19.40
2019-03-24T04:31:43.253Z,19.70
2019-03-24T04:32:43.240Z,19.30
2019-03-24T04:33:43.233Z,18.00
2019-03-24T04:34:43.223Z,19.00
2019-03-24T04:35:43.215Z,18.00
2019-03-24T04:36:43.213Z,16.80
2019-03-24T04:37:43.202Z,20.20
2019-03-24T04:38:43.203Z,18.10
2019-03-24T04:39:43.180Z,13.60
2019-03-24T04:40:43.213Z,17.40
2019-03-24T04:41:43.158Z,16.20
2019-03-24T04:42:43.155Z,19.70
2019-03-24T04:43:43.147Z,19.20
2019-03-24T04:44:43.131Z,19.50
2019-03-24T04:45:43.126Z,15.10
2019-03-24T04:46:43.119Z,16.40
2019-03-24T04:47:43.108Z,15.50
2019-03-24T04:48:43.110Z,18.90
2019-03-24T04:49:43.096Z,13.80
2019-03-24T04:50:43.088Z,15.60
2019-03-24T04:51:43.078Z,17.80
2019-03-24T04:52:43.068Z,19.90
2019-03-24T04:53:43.057Z,22.00
2019-03-24T04:54:43.045Z,19.30
2019-03-24T04:55:43.037Z,17.60
2019-03-24T04:56:43.033Z,15.20
2019-03-24T04:57:43.025Z,17.80
2019-03-24T04:58:43.013Z,15.20
2019-03-24T04:59:43.003Z,16.70
2019-03-24T05:00:42.998Z,18.30
2019-03-24T05:01:42.989Z,19.60
2019-03-24T05:02:42.986Z,15.80
2019-03-24T05:03:42.975Z,19.30
2019-03-24T05:04:42.961Z,18.50
2019-03-24T05:05:43.005Z,19.50
2019-03-24T05:06:42.948Z,19.20
2019-03-24T05:07:42.935Z,16.50
2019-03-24T05:08:42.933Z,17.40
2019-03-24T05:09:42.921Z,22.10
2019-03-24T05:10:42.911Z,18.00
2019-03-24T05:11:42.906Z,14.30
2019-03-24T05:12:42.889Z,16.80
2019-03-24T05:13:42.881Z,16.80
2019-03-24T05:14:42.878Z,21.70
2019-03-24T05:15:42.869Z,20.70
2019-03-24T05:16:42.855Z,19.40
2019-03-24T05:17:42.846Z,17.70
2019-03-24T05:18:42.840Z,16.30
2019-03-24T05:19:42.831Z,15.80
2019-03-24T05:20:42.825Z,17.50
2019-03-24T05:21:42.818Z,17.50
2019-03-24T05:22:42.808Z,17.90
2019-03-24T05:23:42.798Z,17.30
2019-03-24T05:24:42.786Z,15.90
2019-03-24T05:25:42.778Z,15.60
2019-03-24T05:26:42.770Z,17.10
2019-03-24T05:27:42.757Z,16.10
2019-03-24T05:28:42.754Z,17.80
2019-03-24T05:29:42.744Z,17.50
2019-03-24T05:30:42.775Z,18.10
2019-03-24T05:31:42.722Z,20.00
2019-03-24T05:32:42.718Z,16.10
2019-03-24T05:33:42.712Z,18.20
2019-03-24T05:34:42.705Z,16.90
2019-03-24T05:35:42.695Z,15.40
2019-03-24T05:36:42.682Z,17.30
2019-03-24T05:37:42.672Z,13.20
2019-03-24T05:38:42.665Z,22.80
2019-03-24T05:39:42.655Z,15.30
2019-03-24T05:40:42.649Z,16.40
2019-03-24T05:41:42.643Z,17.50
2019-03-24T05:42:42.634Z,18.30
2019-03-24T05:43:42.623Z,16.70
2019-03-24T05:44:42.609Z,13.90
2019-03-24T05:45:42.608Z,17.30
2019-03-24T05:46:42.600Z,18.00
2019-03-24T05:47:42.586Z,18.20
2019-03-24T05:48:42.574Z,19.80
2019-03-24T05:49:42.564Z,13.70
2019-03-24T05:50:42.562Z,16.40
2019-03-24T05:51:42.548Z,21.10
2019-03-24T05:52:42.544Z,15.70
2019-03-24T05:53:42.541Z,14.90
2019-03-24T05:54:42.526Z,21.10
2019-03-24T05:55:42.517Z,15.30
2019-03-24T05:56:42.512Z,16.10
2019-03-24T05:57:42.496Z,16.20
2019-03-24T05:58:42.486Z,17.60
2019-03-24T05:59:42.477Z,17.80
2019-03-24T06:00:42.475Z,16.00
2019-03-24T06:01:42.464Z,18.30
2019-03-24T06:02:42.452Z,24.60
2019-03-24T06:03:42.441Z,17.60
2019-03-24T06:04:42.436Z,14.70
2019-03-24T06:05:42.427Z,17.70
2019-03-24T06:06:42.422Z,15.50
2019-03-24T06:07:42.413Z,18.50
2019-03-24T06:08:42.399Z,19.20
2019-03-24T06:09:42.391Z,14.20
2019-03-24T06:10:42.379Z,15.60
2019-03-24T06:11:42.371Z,16.20
2019-03-24T06:12:42.370Z,14.10
2019-03-24T06:13:42.359Z,21.50
2019-03-24T06:14:42.350Z,15.50
2019-03-24T06:15:42.344Z,23.50
2019-03-24T06:16:42.332Z,18.60
2019-03-24T06:17:47.802Z,21.20
2019-03-24T06:18:42.316Z,21.40
2019-03-24T06:19:42.305Z,19.70
2019-03-24T06:20:42.294Z,13.50
2019-03-24T06:21:42.285Z,16.50
2019-03-24T06:22:42.274Z,20.80
2019-03-24T06:23:42.266Z,17.80
2019-03-24T06:24:42.261Z,15.20
2019-03-24T06:25:42.254Z,18.10
2019-03-24T06:26:42.246Z,14.10
2019-03-24T06:27:42.235Z,17.70
2019-03-24T06:28:42.222Z,17.70
2019-03-24T06:29:42.214Z,17.60
2019-03-24T06:30:42.206Z,15.20
2019-03-24T06:31:42.196Z,18.00
2019-03-24T06:32:42.192Z,18.60
2019-03-24T06:33:42.183Z,17.50
2019-03-24T06:34:42.171Z,18.10
2019-03-24T06:35:42.163Z,20.30
2019-03-24T06:36:42.157Z,17.00
2019-03-24T06:37:42.150Z,16.40
2019-03-24T06:38:42.139Z,17.40
2019-03-24T06:39:42.129Z,14.00
2019-03-24T06:40:42.115Z,14.70
2019-03-24T06:41:42.106Z,17.60
2019-03-24T06:42:42.099Z,21.80
2019-03-24T06:43:42.089Z,15.20
2019-03-24T06:44:42.088Z,18.80
2019-03-24T06:45:42.078Z,21.10
2019-03-24T06:46:42.070Z,15.60
2019-03-24T06:47:42.063Z,15.60
2019-03-24T06:48:42.049Z,15.70
2019-03-24T06:49:42.039Z,19.30
2019-03-24T06:50:42.036Z,18.50
2019-03-24T06:51:42.026Z,16.50
2019-03-24T06:52:42.015Z,16.30
2019-03-24T06:53:42.008Z,16.30
2019-03-24T06:54:41.995Z,24.40
2019-03-24T06:55:41.985Z,14.70
2019-03-24T06:56:41.981Z,15.30
2019-03-24T06:57:41.971Z,19.60
2019-03-24T06:58:41.966Z,18.50
2019-03-24T06:59:41.954Z,15.30
2019-03-24T07:00:41.943Z,19.80
2019-03-24T07:01:41.938Z,16.90
2019-03-24T07:02:41.929Z,22.90
2019-03-24T07:03:41.921Z,19.80
2019-03-24T07:04:41.915Z,19.70
2019-03-24T07:05:41.908Z,16.60
2019-03-24T07:06:41.896Z,16.10
2019-03-24T07:07:41.884Z,18.00
2019-03-24T07:08:41.883Z,17.10
2019-03-24T07:09:41.873Z,19.70
2019-03-24T07:10:41.863Z,16.40
2019-03-24T07:11:41.855Z,18.10
2019-03-24T07:12:41.842Z,11.60
2019-03-24T07:13:41.835Z,18.60
2019-03-24T07:14:41.829Z,14.30
2019-03-24T07:15:41.821Z,25.40
2019-03-24T07:16:41.815Z,18.90
2019-03-24T07:17:41.809Z,17.80
2019-03-24T07:18:41.800Z,18.10
2019-03-24T07:19:41.790Z,22.40
2019-03-24T07:20:41.782Z,18.30
2019-03-24T07:21:41.770Z,20.20
2019-03-24T07:22:41.769Z,16.40
2019-03-24T07:23:41.762Z,12.20
2019-03-24T07:24:41.747Z,15.60
2019-03-24T07:25:41.741Z,16.30
2019-03-24T07:26:41.739Z,19.00
2019-03-24T07:27:41.727Z,17.80
2019-03-24T07:28:41.765Z,19.20
2019-03-24T07:29:41.717Z,16.50
2019-03-24T07:30:41.711Z,15.00
2019-03-24T07:31:41.702Z,20.10
2019-03-24T07:32:41.692Z,14.50
2019-03-24T07:33:41.683Z,16.90
2019-03-24T07:34:41.674Z,16.60
2019-03-24T07:35:41.674Z,17.20
2019-03-24T07:36:41.665Z,16.40
2019-03-24T07:37:41.659Z,20.30
2019-03-24T07:38:41.660Z,17.20
2019-03-24T07:39:41.639Z,14.60
2019-03-24T07:40:41.638Z,15.90
2019-03-24T07:41:41.631Z,15.40
2019-03-24T07:42:41.628Z,18.60
2019-03-24T07:43:41.623Z,17.50
2019-03-24T07:44:41.613Z,14.40
2019-03-24T07:45:41.607Z,13.90
2019-03-24T07:46:41.607Z,17.90
2019-03-24T07:47:41.598Z,17.20
2019-03-24T07:48:41.593Z,17.10
2019-03-24T07:49:41.588Z,14.00
2019-03-24T07:50:41.580Z,14.50
2019-03-24T07:51:41.576Z,12.80
2019-03-24T07:52:41.566Z,16.40
2019-03-24T07:53:41.564Z,13.70
2019-03-24T07:54:41.567Z,19.30
2019-03-24T07:55:41.560Z,14.10
2019-03-24T07:56:41.550Z,16.40
2019-03-24T07:57:41.546Z,12.70
2019-03-24T07:58:41.547Z,13.20
2019-03-24T07:59:41.544Z,16.90
2019-03-24T08:00:41.545Z,11.00
2019-03-24T08:01:41.545Z,14.30
2019-03-24T08:02:50.807Z,21.40
2019-03-24T08:03:41.541Z,14.60
2019-03-24T08:04:41.534Z,14.30
2019-03-24T08:05:41.532Z,11.60
2019-03-24T08:06:41.529Z,14.80
2019-03-24T08:07:41.526Z,15.00
2019-03-24T08:08:44.440Z,13.50
2019-03-24T08:09:41.535Z,15.10
2019-03-24T08:10:41.531Z,13.70
2019-03-24T08:11:41.529Z,12.60
2019-03-24T08:12:41.540Z,14.50
2019-03-24T08:13:52.853Z,15.50
2019-03-24T08:14:41.539Z,14.30
2019-03-24T08:15:41.541Z,12.40
2019-03-24T08:16:41.537Z,16.00
2019-03-24T08:17:41.540Z,13.10
2019-03-24T08:18:41.538Z,14.80
2019-03-24T08:19:41.541Z,17.20
2019-03-24T08:20:41.559Z,14.30
2019-03-24T08:21:41.552Z,12.50
2019-03-24T08:22:41.555Z,14.40
2019-03-24T08:23:41.555Z,12.40
2019-03-24T08:24:41.554Z,13.20
2019-03-24T08:25:41.556Z,13.40
2019-03-24T08:26:41.564Z,13.60
2019-03-24T08:27:41.564Z,15.90
2019-03-24T08:28:41.564Z,16.50
2019-03-24T08:29:41.564Z,13.00
2019-03-24T08:30:41.564Z,13.20
2019-03-24T08:31:41.565Z,12.20
2019-03-24T08:32:41.570Z,13.40
2019-03-24T08:33:41.572Z,12.40
2019-03-24T08:34:41.576Z,13.10
2019-03-24T08:35:41.576Z,14.90
2019-03-24T08:36:41.577Z,13.70
2019-03-24T08:37:41.577Z,16.40
2019-03-24T08:38:41.578Z,13.10
2019-03-24T08:39:41.584Z,13.30
2019-03-24T08:40:41.585Z,18.50
2019-03-24T08:41:41.587Z,15.40
2019-03-24T08:42:41.583Z,15.30
2019-03-24T08:43:41.583Z,16.40
2019-03-24T08:44:41.589Z,11.10
2019-03-24T08:45:41.589Z,11.50
2019-03-24T08:46:41.588Z,15.10
2019-03-24T08:47:41.588Z,16.30
2019-03-24T08:48:41.585Z,13.70
2019-03-24T08:49:41.584Z,15.40
2019-03-24T08:50:41.585Z,13.50
2019-03-24T08:51:41.588Z,16.90
2019-03-24T08:52:41.590Z,15.50
2019-03-24T08:53:41.589Z,16.10
2019-03-24T08:54:41.590Z,14.00
2019-03-24T08:55:41.590Z,15.00
2019-03-24T08:56:41.585Z,17.70
2019-03-24T08:57:41.589Z,18.00
2019-03-24T08:58:41.590Z,13.00
2019-03-24T08:59:41.587Z,14.70
2019-03-24T09:00:41.583Z,17.40
2019-03-24T09:01:41.581Z,15.40
2019-03-24T09:02:41.583Z,18.50
2019-03-24T09:03:41.578Z,17.90
2019-03-24T09:04:41.582Z,14.50
2019-03-24T09:05:41.581Z,16.20
2019-03-24T09:06:41.580Z,18.10
2019-03-24T09:07:41.576Z,17.40
2019-03-24T09:08:41.570Z,17.20
2019-03-24T09:09:41.572Z,18.30
2019-03-24T09:10:41.580Z,16.20
2019-03-24T09:11:41.572Z,19.10
2019-03-24T09:12:41.593Z,17.10
2019-03-24T09:13:41.576Z,17.00
2019-03-24T09:14:41.572Z,16.50
2019-03-24T09:15:43.203Z,17.50
2019-03-24T09:16:41.576Z,16.70
2019-03-24T09:17:41.676Z,17.00
2019-03-24T09:18:52.201Z,15.60
2019-03-24T09:19:41.578Z,16.00
2019-03-24T09:20:42.131Z,17.80
2019-03-24T09:21:41.577Z,20.90
2019-03-24T09:22:41.585Z,16.90
2019-03-24T09:23:41.586Z,19.20
2019-03-24T09:24:41.589Z,20.50
2019-03-24T09:25:41.585Z,11.40
2019-03-24T09:26:41.584Z,15.10
2019-03-24T09:27:41.588Z,18.30
2019-03-24T09:28:41.594Z,17.80
2019-03-24T09:29:41.594Z,16.80
2019-03-24T09:30:41.590Z,14.60
2019-03-24T09:31:41.593Z,16.90
2019-03-24T09:32:41.599Z,16.20
2019-03-24T09:33:41.603Z,17.80
2019-03-24T09:34:41.610Z,16.80
2019-03-24T09:35:41.609Z,13.50
2019-03-24T09:36:41.610Z,15.60
2019-03-24T09:37:41.615Z,16.20
2019-03-24T09:38:41.617Z,16.10
2019-03-24T09:39:41.619Z,17.70
2019-03-24T09:40:41.627Z,16.20
2019-03-24T09:41:41.635Z,18.50
2019-03-24T09:42:41.632Z,14.90
2019-03-24T09:43:41.638Z,16.90
2019-03-24T09:44:41.637Z,16.70
2019-03-24T09:45:41.642Z,18.20
2019-03-24T09:46:41.651Z,19.10
2019-03-24T09:47:41.650Z,16.90
2019-03-24T09:48:41.652Z,18.30
2019-03-24T09:49:41.654Z,15.60
2019-03-24T09:50:41.660Z,17.30
2019-03-24T09:51:41.665Z,17.10
2019-03-24T09:52:41.672Z,14.90
2019-03-24T09:53:41.679Z,15.40
2019-03-24T09:54:41.682Z,17.90
2019-03-24T09:55:41.685Z,15.70
2019-03-24T09:56:41.687Z,17.20
2019-03-24T09:57:41.691Z,15.60
2019-03-24T09:58:41.692Z,14.30
2019-03-24T09:59:41.698Z,21.30
2019-03-24T10:00:41.706Z,18.30
2019-03-24T10:01:41.711Z,17.00
2019-03-24T10:02:41.713Z,14.90
2019-03-24T10:03:41.716Z,19.50
2019-03-24T10:04:41.725Z,17.90
2019-03-24T10:05:41.735Z,20.80
2019-03-24T10:06:41.737Z,15.90
2019-03-24T10:07:41.743Z,19.20
2019-03-24T10:08:47.092Z,20.30
2019-03-24T10:09:41.749Z,15.20
2019-03-24T10:10:41.760Z,16.90
2019-03-24T10:11:41.760Z,15.10
2019-03-24T10:12:41.770Z,16.10
2019-03-24T10:13:41.778Z,16.40
2019-03-24T10:14:41.782Z,16.20
2019-03-24T10:15:41.786Z,15.80
2019-03-24T10:16:41.790Z,16.30
2019-03-24T10:17:41.796Z,15.30
2019-03-24T10:18:41.807Z,14.40
2019-03-24T10:19:41.816Z,16.50
2019-03-24T10:20:41.817Z,12.60
2019-03-24T10:21:41.826Z,13.00
2019-03-24T10:22:41.836Z,16.80
2019-03-24T10:23:41.841Z,14.00
2019-03-24T10:24:41.853Z,14.00
2019-03-24T10:25:41.861Z,14.00
2019-03-24T10:26:41.869Z,14.50
2019-03-24T10:27:41.874Z,16.20
2019-03-24T10:28:41.876Z,13.90
2019-03-24T10:29:41.885Z,15.70
2019-03-24T10:30:41.901Z,12.70
2019-03-24T10:31:42.708Z,13.70
2019-03-24T10:32:41.920Z,12.20
2019-03-24T10:33:41.926Z,12.60
2019-03-24T10:34:41.930Z,15.60
2019-03-24T10:35:41.938Z,13.20
2019-03-24T10:36:41.951Z,11.40
2019-03-24T10:37:41.961Z,14.10
2019-03-24T10:38:41.966Z,13.50
2019-03-24T10:39:41.973Z,14.10
2019-03-24T10:40:41.980Z,9.10
2019-03-24T10:41:41.986Z,10.30
2019-03-24T10:42:41.999Z,8.80
2019-03-24T10:43:42.003Z,7.80
2019-03-24T10:44:42.016Z,10.50
2019-03-24T10:45:42.023Z,6.90
2019-03-24T10:46:42.037Z,9.50
2019-03-24T10:47:42.039Z,11.60
2019-03-24T10:48:42.043Z,11.60
2019-03-24T10:49:42.050Z,10.60
2019-03-24T10:50:42.065Z,9.60
2019-03-24T10:51:42.067Z,9.60
2019-03-24T10:52:42.071Z,13.20
2019-03-24T10:53:42.077Z,11.40
2019-03-24T10:54:42.080Z,8.50
2019-03-24T10:55:42.087Z,10.70
2019-03-24T10:56:42.097Z,11.90
2019-03-24T10:57:42.107Z,11.80
2019-03-24T10:58:42.112Z,10.30
2019-03-24T10:59:42.118Z,12.20
2019-03-24T11:00:42.127Z,10.30
2019-03-24T11:01:42.129Z,11.30
2019-03-24T11:02:42.140Z,10.20
2019-03-24T11:03:42.148Z,9.00
2019-03-24T11:04:42.160Z,12.10
2019-03-24T11:05:42.171Z,11.10
2019-03-24T11:06:42.175Z,12.50
2019-03-24T11:07:42.183Z,8.70
2019-03-24T11:08:42.194Z,11.40
2019-03-24T11:09:42.203Z,11.20
2019-03-24T11:10:42.210Z,10.20
2019-03-24T11:11:42.219Z,11.30
2019-03-24T11:12:42.222Z,12.60
2019-03-24T11:13:42.232Z,12.10
2019-03-24T11:14:42.239Z,14.50
2019-03-24T11:15:42.248Z,14.10
2019-03-24T11:16:42.261Z,12.70
2019-03-24T11:17:42.273Z,17.20
2019-03-24T11:18:42.281Z,14.20
2019-03-24T11:19:42.287Z,14.60
2019-03-24T11:20:42.317Z,12.10
2019-03-24T11:21:42.301Z,12.50
2019-03-24T11:22:42.313Z,12.90
2019-03-24T11:23:42.320Z,14.20
2019-03-24T11:24:42.324Z,12.10
2019-03-24T11:25:42.332Z,16.40
2019-03-24T11:26:42.341Z,14.20
2019-03-24T11:27:42.346Z,11.60
2019-03-24T11:28:42.359Z,15.70
2019-03-24T11:29:42.367Z,15.80
2019-03-24T11:30:42.381Z,16.50
2019-03-24T11:31:42.385Z,12.80
2019-03-24T11:32:42.393Z,17.80
2019-03-24T11:33:42.398Z,17.00
2019-03-24T11:34:42.401Z,16.80
2019-03-24T11:35:42.409Z,16.90
2019-03-24T11:36:42.420Z,14.90
2019-03-24T11:37:42.428Z,11.50
2019-03-24T11:38:42.430Z,16.10
2019-03-24T11:39:42.438Z,12.60
2019-03-24T11:40:42.447Z,14.40
2019-03-24T11:41:42.454Z,16.00
2019-03-24T11:42:42.468Z,19.70
2019-03-24T11:43:42.466Z,14.80
2019-03-24T11:44:42.468Z,16.20
2019-03-24T11:45:42.473Z,16.00
2019-03-24T11:46:42.477Z,12.20
2019-03-24T11:47:42.482Z,12.30
2019-03-24T11:48:42.490Z,17.40
2019-03-24T11:49:46.214Z,15.20
2019-03-24T11:50:42.497Z,19.40
2019-03-24T11:51:42.498Z,13.80
2019-03-24T11:52:42.500Z,11.70
2019-03-24T11:53:42.504Z,13.10
2019-03-24T11:54:42.510Z,10.70
2019-03-24T11:55:42.512Z,12.00
2019-03-24T11:56:42.512Z,11.90
2019-03-24T11:57:42.514Z,10.90
2019-03-24T11:58:42.609Z,12.60
2019-03-24T11:59:42.520Z,12.70
2019-03-24T12:00:42.528Z,14.30
2019-03-24T12:01:42.537Z,16.50
2019-03-24T12:02:42.530Z,13.60
2019-03-24T12:03:42.537Z,14.40
2019-03-24T12:04:42.531Z,15.40
2019-03-24T12:05:42.532Z,17.30
2019-03-24T12:06:42.530Z,11.30
2019-03-24T12:07:42.566Z,12.80
2019-03-24T12:08:42.539Z,9.90
2019-03-24T12:09:42.541Z,11.70
2019-03-24T12:10:42.537Z,13.20
2019-03-24T12:11:42.538Z,9.30
2019-03-24T12:12:42.583Z,10.60
2019-03-24T12:13:42.543Z,9.20
2019-03-24T12:14:42.548Z,7.50
2019-03-24T12:15:42.546Z,7.50
2019-03-24T12:16:42.556Z,11.80
2019-03-24T12:17:42.544Z,9.50
2019-03-24T12:18:42.545Z,12.20
2019-03-24T12:19:42.544Z,10.30
2019-03-24T12:20:42.550Z,11.00
2019-03-24T12:21:42.549Z,11.60
2019-03-24T12:22:42.549Z,11.20
2019-03-24T12:23:42.548Z,13.70
2019-03-24T12:24:42.545Z,13.60
2019-03-24T12:25:42.548Z,12.30
2019-03-24T12:26:42.550Z,14.70
2019-03-24T12:27:42.547Z,10.60
2019-03-24T12:28:42.544Z,10.20
2019-03-24T12:29:42.543Z,9.60
2019-03-24T12:30:42.548Z,8.90
2019-03-24T12:31:42.547Z,10.20
2019-03-24T12:32:42.550Z,10.90
2019-03-24T12:33:42.552Z,9.30
2019-03-24T12:34:42.549Z,9.40
2019-03-24T12:35:42.546Z,11.30
2019-03-24T12:36:42.546Z,12.40
2019-03-24T12:37:42.542Z,9.80
2019-03-24T12:38:42.545Z,10.90
2019-03-24T12:39:42.545Z,8.90
2019-03-24T12:40:42.548Z,14.80
2019-03-24T12:41:42.551Z,8.70
2019-03-24T12:42:42.545Z,9.70
2019-03-24T12:43:42.541Z,9.00
2019-03-24T12:44:42.546Z,10.90
2019-03-24T12:45:42.544Z,8.60
2019-03-24T12:46:42.542Z,8.20
2019-03-24T12:47:42.541Z,11.40
2019-03-24T12:48:42.534Z,8.20
2019-03-24T12:49:42.534Z,10.60
2019-03-24T12:50:42.534Z,10.40
2019-03-24T12:51:42.533Z,8.00
2019-03-24T12:52:42.536Z,8.00
2019-03-24T12:53:42.537Z,9.40